Time;durP1;ratioP1;P1;durP2;ratioP2;P2;SDS_P1;SDS_P2;PMS_P1;PMS_P2;Temp;Humidity;BMP_temperature;BMP_pressure;BME280_temperature;BME280_humidity;BME280_pressure;Samples;Min_cycle;Max_cycle;Signal;HPM_P1;HPM_P2
2021/04/08 00:02:06;;;;;;;4.43;1.53;;;5.20;99.90;;;;;;5093026;28;20160;-77
2021/04/08 00:04:32;;;;;;;3.43;1.10;;;5.20;99.90;;;;;;5094181;28;21196;-77
2021/04/08 00:06:58;;;;;;;5.77;1.47;;;5.20;99.90;;;;;;5092406;28;20172;-77
2021/04/08 00:09:26;;;;;;;4.32;1.50;;;5.20;99.90;;;;;;5094236;28;20232;-77
2021/04/08 00:11:56;;;;;;;4.80;1.70;;;5.20;99.90;;;;;;5076036;28;20616;-77
2021/04/08 00:14:23;;;;;;;6.35;2.45;;;5.30;99.90;;;;;;5092418;28;20217;-77
2021/04/08 00:16:49;;;;;;;6.13;2.05;;;5.30;99.90;;;;;;5092278;28;20168;-77
2021/04/08 00:19:15;;;;;;;5.03;1.53;;;5.30;99.90;;;;;;5092624;28;20203;-77
2021/04/08 00:21:40;;;;;;;5.37;1.33;;;5.30;99.90;;;;;;5093672;28;20557;-77
2021/04/08 00:24:07;;;;;;;6.77;1.80;;;5.40;99.90;;;;;;5058811;28;20721;-77
2021/04/08 00:26:32;;;;;;;4.40;1.58;;;5.30;99.90;;;;;;5093526;28;20204;-77
2021/04/08 00:28:58;;;;;;;4.10;1.40;;;5.40;99.90;;;;;;5080373;28;20557;-77
2021/04/08 00:31:24;;;;;;;4.32;1.38;;;5.40;99.90;;;;;;5092331;28;20313;-77
2021/04/08 00:33:50;;;;;;;7.73;1.80;;;5.40;99.90;;;;;;5092300;28;20282;-77
2021/04/08 00:36:16;;;;;;;5.80;2.70;;;5.40;99.90;;;;;;5092141;28;20605;-77
2021/04/08 00:38:42;;;;;;;7.97;2.03;;;5.40;99.90;;;;;;5093326;28;20204;-77
2021/04/08 00:41:07;;;;;;;3.63;1.40;;;5.40;99.90;;;;;;5092023;28;20623;-77
2021/04/08 00:43:33;;;;;;;5.93;1.67;;;5.40;99.90;;;;;;5093199;28;20244;-77
2021/04/08 00:45:59;;;;;;;4.70;1.80;;;5.40;99.90;;;;;;5075170;28;20167;-77
2021/04/08 00:48:24;;;;;;;2.70;1.60;;;5.40;99.90;;;;;;5091375;28;20203;-77
2021/04/08 00:50:51;;;;;;;3.92;1.52;;;5.40;99.90;;;;;;5092065;28;20172;-77
2021/04/08 00:53:21;;;;;;;6.73;2.10;;;5.40;99.90;;;;;;5091860;28;20232;-77
2021/04/08 00:55:51;;;;;;;4.82;1.60;;;5.50;99.90;;;;;;5075136;28;20977;-77
2021/04/08 00:58:18;;;;;;;5.15;1.60;;;5.40;99.90;;;;;;5091427;28;20274;-77
2021/04/08 01:00:45;;;;;;;5.15;1.60;;;5.40;99.90;;;;;;5075239;28;20167;-77
2021/04/08 01:03:11;;;;;;;4.85;1.52;;;5.40;99.90;;;;;;5091968;28;20566;-78
2021/04/08 01:05:37;;;;;;;5.30;1.60;;;5.40;99.90;;;;;;5096311;28;20538;-77
2021/04/08 01:08:04;;;;;;;3.38;1.60;;;5.40;99.90;;;;;;5074532;28;20259;-78
2021/04/08 01:10:30;;;;;;;4.50;1.75;;;5.40;99.90;;;;;;5091759;28;20550;-77
2021/04/08 01:13:00;;;;;;;3.85;1.60;;;5.40;99.90;;;;;;5074507;28;20863;-76
2021/04/08 01:15:27;;;;;;;3.60;1.35;;;5.40;99.90;;;;;;5091497;28;20639;-77
2021/04/08 01:18:14;;;;;;;3.30;1.27;;;5.40;99.90;;;;;;5091251;28;20204;-77
2021/04/08 01:20:47;;;;;;;3.63;1.40;;;5.40;99.90;;;;;;5091771;28;20301;-76
2021/04/08 01:23:35;;;;;;;3.70;1.45;;;5.40;99.90;;;;;;5074544;28;20290;-77
2021/04/08 01:26:25;;;;;;;4.72;2.10;;;5.40;99.90;;;;;;5091048;28;20163;-77
2021/04/08 01:29:23;;;;;;;4.70;1.70;;;5.40;99.90;;;;;;5093798;28;20167;-77
2021/04/08 01:31:51;;;;;;;5.20;1.42;;;5.40;99.90;;;;;;5093059;28;20176;-78
2021/04/08 01:34:20;;;;;;;5.32;1.83;;;5.40;99.90;;;;;;5093790;28;20535;-77
2021/04/08 01:36:52;;;;;;;3.05;1.40;;;5.40;99.90;;;;;;5093533;28;20217;-77
2021/04/08 01:39:19;;;;;;;7.68;2.00;;;5.40;99.90;;;;;;5075898;28;20195;-77
2021/04/08 01:41:47;;;;;;;6.22;1.85;;;5.30;99.90;;;;;;5080263;28;20178;-77
2021/04/08 01:44:21;;;;;;;6.18;1.60;;;5.40;99.90;;;;;;5093248;28;20196;-78
2021/04/08 01:46:59;;;;;;;5.82;1.50;;;5.30;99.90;;;;;;5073812;28;20511;-77
2021/04/08 01:49:28;;;;;;;3.42;1.90;;;5.30;99.90;;;;;;5091048;28;20170;-77
2021/04/08 01:51:56;;;;;;;4.75;2.42;;;5.30;99.90;;;;;;5071888;22;20276;-82
2021/04/08 01:54:27;;;;;;;6.72;1.73;;;5.30;99.90;;;;;;5031766;28;20253;-82
2021/04/08 01:56:57;;;;;;;7.47;2.30;;;5.30;99.90;;;;;;5030627;28;20197;-82
2021/04/08 01:59:24;;;;;;;3.72;1.80;;;5.30;99.90;;;;;;5030996;28;20201;-83
2021/04/08 02:01:50;;;;;;;4.45;1.50;;;5.30;99.90;;;;;;5031546;28;20193;-82
2021/04/08 02:04:17;;;;;;;7.10;2.17;;;5.30;99.90;;;;;;5022527;28;20173;-82
2021/04/08 02:06:45;;;;;;;4.60;1.60;;;5.30;99.90;;;;;;5021981;28;20217;-82
2021/04/08 02:09:11;;;;;;;2.47;2.20;;;5.30;99.90;;;;;;5030360;28;20174;-82
2021/04/08 02:11:39;;;;;;;5.68;1.60;;;5.30;99.90;;;;;;5023673;28;20189;-82
2021/04/08 02:14:06;;;;;;;4.22;2.13;;;5.30;99.90;;;;;;5030737;28;20208;-82
2021/04/08 02:16:32;;;;;;;6.85;2.60;;;5.30;99.90;;;;;;5031334;28;20165;-82
2021/04/08 02:19:01;;;;;;;3.38;2.17;;;5.30;99.90;;;;;;5030649;28;20224;-82
2021/04/08 02:21:28;;;;;;;7.15;2.15;;;5.30;99.90;;;;;;5032196;28;20188;-83
2021/04/08 02:23:55;;;;;;;6.03;2.60;;;5.30;99.90;;;;;;5035551;28;20180;-83
2021/04/08 02:26:21;;;;;;;6.35;3.00;;;5.30;99.90;;;;;;5030904;28;20201;-82
2021/04/08 02:28:48;;;;;;;4.60;2.88;;;5.30;99.90;;;;;;5030853;28;20170;-82
2021/04/08 02:31:16;;;;;;;3.60;2.03;;;5.30;99.90;;;;;;5031016;28;20288;-82
2021/04/08 02:33:42;;;;;;;5.85;2.10;;;5.30;99.90;;;;;;5032286;28;20178;-82
2021/04/08 02:36:08;;;;;;;3.75;1.65;;;5.30;99.90;;;;;;5033127;28;20178;-82
2021/04/08 02:38:36;;;;;;;3.97;1.65;;;5.30;99.90;;;;;;5039420;28;20204;-82
2021/04/08 02:41:06;;;;;;;3.08;1.63;;;5.30;99.90;;;;;;5040635;28;20186;-82
2021/04/08 02:43:32;;;;;;;4.78;1.83;;;5.20;99.90;;;;;;5040822;28;20227;-82
2021/04/08 02:45:57;;;;;;;4.43;1.93;;;5.30;99.90;;;;;;5041737;28;20661;-82
2021/04/08 02:48:25;;;;;;;2.27;1.37;;;5.30;99.90;;;;;;5041463;28;20653;-83
2021/04/08 02:50:55;;;;;;;5.05;2.25;;;5.30;99.90;;;;;;5040265;28;20166;-82
2021/04/08 02:53:46;;;;;;;4.60;1.60;;;5.30;99.90;;;;;;5038795;28;20186;-83
2021/04/08 02:56:30;;;;;;;3.53;1.33;;;5.30;99.90;;;;;;5032209;28;20169;-82
2021/04/08 02:59:02;;;;;;;7.10;1.60;;;5.30;99.90;;;;;;5032105;28;20284;-82
2021/04/08 03:01:31;;;;;;;2.80;1.17;;;5.30;99.90;;;;;;5035244;28;20333;-82
2021/04/08 03:03:59;;;;;;;2.90;1.48;;;5.30;99.90;;;;;;5033269;28;20181;-82
2021/04/08 03:06:27;;;;;;;3.47;1.95;;;5.30;99.90;;;;;;5032304;28;20248;-82
2021/04/08 03:08:55;;;;;;;4.13;1.30;;;5.40;99.90;;;;;;5036257;28;20201;-82
2021/04/08 03:11:27;;;;;;;1.88;1.30;;;5.40;99.90;;;;;;5031768;28;20194;-82
2021/04/08 03:13:57;;;;;;;5.07;1.25;;;5.40;99.90;;;;;;5031572;28;20185;-82
2021/04/08 03:16:25;;;;;;;5.32;1.35;;;5.40;99.90;;;;;;5031455;28;20170;-82
2021/04/08 03:18:54;;;;;;;2.10;1.05;;;5.40;99.90;;;;;;5030629;28;20206;-82
2021/04/08 03:21:24;;;;;;;5.75;1.33;;;5.40;99.90;;;;;;5013872;28;20190;-83
2021/04/08 03:23:51;;;;;;;4.45;1.40;;;5.40;99.90;;;;;;5031191;28;20208;-82
2021/04/08 03:26:17;;;;;;;4.75;1.00;;;5.40;99.90;;;;;;5030038;28;20253;-82
2021/04/08 03:28:44;;;;;;;4.00;1.20;;;5.40;99.90;;;;;;5032966;28;20212;-82
2021/04/08 03:31:11;;;;;;;2.70;1.95;;;5.50;99.90;;;;;;5034993;28;21250;-83
2021/04/08 03:33:37;;;;;;;2.22;1.10;;;5.50;99.90;;;;;;5034897;28;20197;-83
2021/04/08 03:36:05;;;;;;;3.00;1.00;;;5.50;99.90;;;;;;5034096;28;20600;-83
2021/04/08 03:38:31;;;;;;;7.53;1.35;;;5.50;99.90;;;;;;5029525;28;20620;-82
2021/04/08 03:41:01;;;;;;;6.07;1.27;;;5.50;99.90;;;;;;5032457;28;20220;-82
2021/04/08 03:43:27;;;;;;;3.92;1.55;;;5.50;99.90;;;;;;5026425;28;20165;-82
2021/04/08 03:45:59;;;;;;;3.53;1.40;;;5.50;99.90;;;;;;5034437;28;20177;-82
2021/04/08 03:48:26;;;;;;;2.97;1.65;;;5.50;99.90;;;;;;5028193;28;20253;-82
2021/04/08 03:50:53;;;;;;;4.60;1.60;;;5.50;99.90;;;;;;5032043;28;20162;-81
2021/04/08 03:53:19;;;;;;;3.55;1.92;;;5.50;99.90;;;;;;5011376;28;20244;-82
2021/04/08 03:55:47;;;;;;;8.27;2.50;;;5.50;99.90;;;;;;5031593;28;20583;-82
2021/04/08 03:58:13;;;;;;;3.53;2.53;;;5.50;99.90;;;;;;5031977;28;20197;-82
2021/04/08 04:00:39;;;;;;;4.93;2.47;;;5.50;99.90;;;;;;5033828;28;20166;-82
2021/04/08 04:03:10;;;;;;;9.68;2.90;;;5.50;99.90;;;;;;5025096;28;20219;-82
2021/04/08 04:05:40;;;;;;;9.45;2.88;;;5.50;99.90;;;;;;5032761;28;20173;-82
2021/04/08 04:08:07;;;;;;;7.07;3.45;;;5.50;99.90;;;;;;5029766;28;20175;-82
2021/04/08 04:10:38;;;;;;;4.97;3.70;;;5.50;99.90;;;;;;5028797;28;20585;-82
2021/04/08 04:13:05;;;;;;;7.88;4.47;;;5.50;99.90;;;;;;5033321;28;20173;-82
2021/04/08 04:15:33;;;;;;;9.02;4.40;;;5.50;99.90;;;;;;5031487;28;20177;-82
2021/04/08 04:18:02;;;;;;;8.95;3.30;;;5.50;99.90;;;;;;5032736;28;20197;-82
2021/04/08 04:20:27;;;;;;;4.28;3.88;;;5.50;99.90;;;;;;5027863;28;20565;-82
2021/04/08 04:22:53;;;;;;;7.97;7.00;;;5.50;99.90;;;;;;5030799;28;20192;-82
2021/04/08 04:25:19;;;;;;;5.47;3.80;;;5.50;99.90;;;;;;5034125;28;20520;-81
2021/04/08 04:27:44;;;;;;;7.40;4.37;;;5.50;99.90;;;;;;5035530;28;20169;-82
2021/04/08 04:30:11;;;;;;;8.57;4.17;;;5.50;99.90;;;;;;5039890;28;20195;-82
2021/04/08 04:32:37;;;;;;;8.85;4.60;;;5.50;99.90;;;;;;5040446;28;20204;-82
2021/04/08 04:35:03;;;;;;;8.90;4.32;;;5.50;99.90;;;;;;5036975;28;20169;-82
2021/04/08 04:37:29;;;;;;;6.25;4.07;;;5.50;99.90;;;;;;5033118;28;20161;-81
2021/04/08 04:39:55;;;;;;;4.70;4.20;;;5.50;99.90;;;;;;5032611;28;20263;-81
2021/04/08 04:42:21;;;;;;;10.07;5.33;;;5.50;99.90;;;;;;5032469;28;20209;-82
2021/04/08 04:44:46;;;;;;;7.70;4.57;;;5.60;99.90;;;;;;5032622;28;20209;-81
2021/04/08 04:47:12;;;;;;;9.63;4.37;;;5.60;99.90;;;;;;5032362;28;20201;-81
2021/04/08 04:49:38;;;;;;;8.30;5.07;;;5.60;99.90;;;;;;5033755;28;20173;-81
2021/04/08 04:52:04;;;;;;;6.80;3.90;;;5.60;99.90;;;;;;5036678;28;20216;-82
2021/04/08 04:54:29;;;;;;;9.82;4.82;;;5.60;99.90;;;;;;5034789;28;20169;-82
2021/04/08 04:56:55;;;;;;;6.20;5.10;;;5.60;99.90;;;;;;5033274;28;20184;-81
2021/04/08 04:59:21;;;;;;;7.27;4.80;;;5.60;99.90;;;;;;5032366;28;20201;-81
2021/04/08 05:01:47;;;;;;;9.95;5.15;;;5.60;99.90;;;;;;5015487;28;20281;-82
2021/04/08 05:04:13;;;;;;;4.78;4.25;;;5.60;99.90;;;;;;5033957;28;20165;-82
2021/04/08 05:06:39;;;;;;;7.73;5.43;;;5.70;99.90;;;;;;5030954;28;20193;-81
2021/04/08 05:09:05;;;;;;;6.50;5.03;;;5.60;99.90;;;;;;5023684;28;20166;-82
2021/04/08 05:11:32;;;;;;;8.00;5.37;;;5.70;99.90;;;;;;5031258;28;20197;-82
2021/04/08 05:13:58;;;;;;;8.63;5.63;;;5.60;99.90;;;;;;5030554;28;20586;-82
2021/04/08 05:16:23;;;;;;;6.23;5.57;;;5.70;99.90;;;;;;5026626;28;20686;-82
2021/04/08 05:18:49;;;;;;;7.40;4.83;;;5.70;99.90;;;;;;5031922;28;20201;-83
2021/04/08 05:21:15;;;;;;;6.73;4.90;;;5.80;99.90;;;;;;5026796;28;20722;-83
2021/04/08 05:23:41;;;;;;;9.05;6.13;;;5.80;99.90;;;;;;5028171;28;20165;-83
2021/04/08 05:26:06;;;;;;;6.93;4.53;;;5.80;99.90;;;;;;5024685;28;20215;-84
2021/04/08 05:28:32;;;;;;;8.17;5.53;;;5.80;99.90;;;;;;5023475;28;20259;-84
2021/04/08 05:30:58;;;;;;;6.47;5.13;;;5.80;99.90;;;;;;5021511;28;20211;-82
2021/04/08 05:33:24;;;;;;;6.22;4.70;;;5.90;99.90;;;;;;5036443;28;20178;-81
2021/04/08 05:35:50;;;;;;;7.20;4.97;;;5.90;99.90;;;;;;5018783;28;20188;-81
2021/04/08 05:38:17;;;;;;;5.60;4.00;;;5.90;99.90;;;;;;5032765;28;20209;-81
2021/04/08 05:40:43;;;;;;;5.80;4.63;;;6.00;99.90;;;;;;5032893;28;20173;-81
2021/04/08 05:43:09;;;;;;;7.15;4.25;;;6.00;99.90;;;;;;5035847;28;20533;-83
2021/04/08 05:45:35;;;;;;;4.23;3.40;;;6.00;99.90;;;;;;5031994;28;20166;-82
2021/04/08 05:48:01;;;;;;;5.63;3.80;;;6.10;99.90;;;;;;5023246;28;20189;-81
2021/04/08 05:50:26;;;;;;;5.97;3.70;;;6.10;99.90;;;;;;5031674;28;20231;-82
2021/04/08 05:52:52;;;;;;;11.53;4.97;;;6.20;99.90;;;;;;5037919;28;20991;-81
2021/04/08 05:55:18;;;;;;;10.73;5.40;;;6.20;99.90;;;;;;5034988;28;20177;-81
2021/04/08 05:57:44;;;;;;;5.23;3.60;;;6.30;99.90;;;;;;5033192;28;20572;-81
2021/04/08 06:00:11;;;;;;;10.60;3.93;;;6.30;99.90;;;;;;5039122;28;20617;-81
2021/04/08 06:02:37;;;;;;;5.80;3.78;;;6.40;99.90;;;;;;5034629;28;20197;-81
2021/04/08 06:05:05;;;;;;;5.20;4.37;;;6.40;99.90;;;;;;5022522;28;20664;-82
2021/04/08 06:07:31;;;;;;;8.73;4.53;;;6.50;99.90;;;;;;5041281;28;20579;-81
2021/04/08 06:09:57;;;;;;;8.53;5.20;;;6.50;99.90;;;;;;5018274;28;20177;-82
2021/04/08 06:12:23;;;;;;;6.43;4.73;;;6.60;99.90;;;;;;5033783;28;20204;-83
2021/04/08 06:14:50;;;;;;;6.10;4.25;;;6.70;99.90;;;;;;5037576;28;20586;-82
2021/04/08 06:17:16;;;;;;;8.85;4.82;;;6.80;99.90;;;;;;5036212;28;20192;-82
2021/04/08 06:19:42;;;;;;;8.87;4.50;;;6.90;99.90;;;;;;5017878;28;20288;-83
2021/04/08 06:22:08;;;;;;;6.00;3.97;;;7.00;99.90;;;;;;5034826;28;20232;-83
2021/04/08 06:24:35;;;;;;;6.07;3.27;;;7.10;99.90;;;;;;5015836;28;20162;-83
2021/04/08 06:27:01;;;;;;;9.68;3.70;;;7.20;99.90;;;;;;5033561;28;20970;-83
2021/04/08 06:29:27;;;;;;;5.68;4.03;;;7.30;99.90;;;;;;4999739;28;20177;-81
2021/04/08 06:31:52;;;;;;;5.67;3.57;;;7.40;99.90;;;;;;5036773;28;20235;-84
2021/04/08 06:34:18;;;;;;;6.13;4.33;;;7.60;99.90;;;;;;5020118;28;20689;-83
2021/04/08 06:36:44;;;;;;;5.90;3.80;;;7.70;99.90;;;;;;5032710;28;20180;-83
2021/04/08 06:39:10;;;;;;;5.70;3.87;;;7.80;99.90;;;;;;5033860;28;20211;-83
2021/04/08 06:41:37;;;;;;;5.07;4.57;;;7.90;99.90;;;;;;5034071;28;20205;-84
2021/04/08 06:44:05;;;;;;;5.57;4.18;;;8.10;99.90;;;;;;5034975;28;20648;-82
2021/04/08 06:46:35;;;;;;;5.70;3.70;;;8.20;99.90;;;;;;5031782;28;20176;-81
2021/04/08 06:49:10;;;;;;;6.90;4.40;;;8.40;99.90;;;;;;5030727;28;20178;-81
2021/04/08 06:51:38;;;;;;;7.97;4.93;;;8.60;99.90;;;;;;5020703;28;20197;-81
2021/04/08 06:54:05;;;;;;;7.63;4.85;;;8.90;99.90;;;;;;5018647;28;20201;-81
2021/04/08 06:56:31;;;;;;;8.48;4.15;;;9.20;99.90;;;;;;5034281;28;20174;-81
2021/04/08 06:58:57;;;;;;;6.70;4.82;;;9.50;99.90;;;;;;5023882;28;20232;-81
2021/04/08 07:01:24;;;;;;;5.53;4.22;;;9.90;99.90;;;;;;5013568;28;20719;-81
2021/04/08 07:03:51;;;;;;;4.63;3.65;;;10.20;99.90;;;;;;5023886;28;20601;-80
2021/04/08 07:06:17;;;;;;;10.02;4.10;;;10.70;99.90;;;;;;5035092;28;20182;-81
2021/04/08 07:08:45;;;;;;;5.73;3.70;;;11.20;99.90;;;;;;5034377;28;20518;-82
2021/04/08 07:11:11;;;;;;;8.55;3.97;;;11.60;99.90;;;;;;5035810;28;20670;-82
2021/04/08 07:13:37;;;;;;;7.30;3.20;;;12.00;99.90;;;;;;5034819;28;20181;-81
2021/04/08 07:16:03;;;;;;;9.23;4.00;;;12.40;99.90;;;;;;5031835;28;20197;-80
2021/04/08 07:18:28;;;;;;;5.80;3.22;;;12.90;99.90;;;;;;5035435;28;20616;-81
2021/04/08 07:20:56;;;;;;;6.30;3.10;;;13.40;99.90;;;;;;5038183;28;20184;-81
2021/04/08 07:23:23;;;;;;;5.23;2.63;;;14.00;99.90;;;;;;5035428;28;20169;-82
2021/04/08 07:26:10;;;;;;;4.27;3.00;;;14.60;99.90;;;;;;5034348;28;20579;-82
2021/04/08 07:28:39;;;;;;;6.00;3.20;;;15.10;99.90;;;;;;5033846;28;20587;-81
2021/04/08 07:31:31;;;;;;;4.83;2.40;;;15.50;99.90;;;;;;5035042;28;20608;-81
2021/04/08 07:33:59;;;;;;;4.80;2.87;;;15.70;99.90;;;;;;5035034;28;21232;-81
2021/04/08 07:36:34;;;;;;;6.97;2.57;;;16.00;99.90;;;;;;5033464;28;20599;-81
2021/04/08 07:39:06;;;;;;;5.73;3.50;;;16.30;99.90;;;;;;5033854;28;20631;-81
2021/04/08 07:41:36;;;;;;;3.03;2.43;;;16.50;99.60;;;;;;5034458;28;20666;-82
2021/04/08 07:44:05;;;;;;;4.57;2.40;;;16.60;97.30;;;;;;5034606;28;20572;-81
2021/04/08 07:46:44;;;;;;;3.63;2.20;;;16.60;96.80;;;;;;5016721;28;20560;-81
2021/04/08 07:49:31;;;;;;;3.53;3.23;;;16.70;95.40;;;;;;5033782;28;20623;-80
2021/04/08 07:52:16;;;;;;;5.10;2.83;;;17.00;96.20;;;;;;5036046;28;20670;-81
2021/04/08 07:55:17;;;;;;;2.60;2.00;;;17.50;97.50;;;;;;5034067;28;20573;-81
2021/04/08 07:57:56;;;;;;;4.87;2.30;;;18.20;96.90;;;;;;5033740;28;20582;-80
2021/04/08 08:00:26;;;;;;;4.30;2.43;;;18.90;96.10;;;;;;5035291;28;20572;-81
2021/04/08 08:02:53;;;;;;;6.33;1.73;;;19.70;97.30;;;;;;5017370;28;20604;-82
2021/04/08 08:05:25;;;;;;;3.53;1.53;;;20.50;96.30;;;;;;5035805;28;20576;-82
2021/04/08 08:07:51;;;;;;;4.47;1.43;;;21.30;95.50;;;;;;5035997;28;20573;-82
2021/04/08 08:10:25;;;;;;;4.43;1.33;;;22.00;94.00;;;;;;5034371;28;20573;-80
2021/04/08 08:12:52;;;;;;;2.37;1.53;;;22.60;92.10;;;;;;5034490;28;20606;-80
2021/04/08 08:15:21;;;;;;;3.20;1.20;;;23.20;91.50;;;;;;5032891;28;21004;-81
2021/04/08 08:17:48;;;;;;;4.10;1.57;;;23.60;86.40;;;;;;5034481;28;20616;-81
2021/04/08 08:20:15;;;;;;;2.40;1.30;;;24.00;81.70;;;;;;5035175;28;20955;-81
2021/04/08 08:22:42;;;;;;;3.67;2.20;;;24.30;79.40;;;;;;5043151;28;20783;-79
2021/04/08 08:25:09;;;;;;;1.90;1.23;;;24.30;57.90;;;;;;5033832;28;20560;-81
2021/04/08 08:27:40;;;;;;;3.47;1.70;;;24.70;65.10;;;;;;5034853;28;20557;-81
2021/04/08 08:30:09;;;;;;;5.40;1.60;;;25.10;65.80;;;;;;5037763;28;20576;-80
2021/04/08 08:32:34;;;;;;;3.47;1.50;;;25.50;66.50;;;;;;5036751;28;20605;-80
2021/04/08 08:35:00;;;;;;;4.03;2.60;;;25.70;63.80;;;;;;5045385;28;20582;-78
2021/04/08 08:37:30;;;;;;;3.93;1.50;;;25.60;61.80;;;;;;5044907;28;20174;-78
2021/04/08 08:39:56;;;;;;;3.97;1.97;;;25.30;59.30;;;;;;5047675;28;20677;-81
2021/04/08 08:42:23;;;;;;;3.90;2.57;;;24.80;58.70;;;;;;5026731;28;20789;-79
2021/04/08 08:44:51;;;;;;;5.30;2.00;;;23.70;48.20;;;;;;5039859;28;20196;-79
2021/04/08 08:47:28;;;;;;;5.67;1.80;;;23.60;53.80;;;;;;5035481;28;20956;-79
2021/04/08 08:50:04;;;;;;;3.33;2.63;;;23.60;54.60;;;;;;5035543;28;21276;-79
2021/04/08 08:52:35;;;;;;;4.10;2.00;;;23.70;53.90;;;;;;5032496;28;20765;-80
2021/04/08 08:55:04;;;;;;;3.40;1.43;;;23.90;55.90;;;;;;5033233;28;20618;-78
2021/04/08 08:57:32;;;;;;;4.33;1.60;;;24.30;56.90;;;;;;5033118;28;20608;-78
2021/04/08 08:59:58;;;;;;;3.80;1.23;;;24.50;55.70;;;;;;5034326;28;20619;-78
2021/04/08 09:02:24;;;;;;;3.70;1.53;;;24.20;53.20;;;;;;5034104;28;20594;-77
2021/04/08 09:04:53;;;;;;;3.23;1.40;;;23.50;51.00;;;;;;5034152;28;20564;-77
2021/04/08 09:07:22;;;;;;;2.70;1.03;;;22.50;46.90;;;;;;5016465;28;20581;-77
2021/04/08 09:09:54;;;;;;;2.80;1.57;;;21.40;47.80;;;;;;5033583;28;21183;-78
2021/04/08 09:12:22;;;;;;;2.20;1.20;;;20.50;48.00;;;;;;5037450;28;20612;-78
2021/04/08 09:14:49;;;;;;;2.13;1.80;;;19.70;48.20;;;;;;5032882;28;20600;-77
2021/04/08 09:17:37;;;;;;;3.77;1.43;;;19.00;47.80;;;;;;5020331;28;21026;-77
2021/04/08 09:20:08;;;;;;;2.80;1.40;;;18.40;47.20;;;;;;5011843;28;20708;-77
2021/04/08 09:22:34;;;;;;;2.57;1.20;;;18.00;48.60;;;;;;5013078;28;20659;-80
2021/04/08 09:25:00;;;;;;;2.93;1.40;;;17.50;47.90;;;;;;5011541;28;20558;-77
2021/04/08 09:27:26;;;;;;;2.63;1.40;;;17.10;48.60;;;;;;5011760;28;20561;-79
2021/04/08 09:29:58;;;;;;;2.00;1.20;;;16.90;49.40;;;;;;5035253;28;20650;-78
2021/04/08 09:32:32;;;;;;;2.63;1.30;;;16.70;49.10;;;;;;5018242;28;20248;-78
2021/04/08 09:35:07;;;;;;;2.60;1.10;;;16.50;48.50;;;;;;5012812;28;20989;-78
2021/04/08 09:37:48;;;;;;;2.80;1.27;;;16.30;49.00;;;;;;5010974;28;21171;-78
2021/04/08 09:40:23;;;;;;;7.57;0.93;;;16.00;48.70;;;;;;4995017;28;20593;-79
2021/04/08 09:42:56;;;;;;;1.47;1.03;;;15.70;48.40;;;;;;4994853;28;20616;-78
2021/04/08 09:45:25;;;;;;;2.97;1.67;;;15.40;48.50;;;;;;5012463;28;20562;-78
2021/04/08 09:48:12;;;;;;;2.90;1.57;;;15.30;48.40;;;;;;5012305;28;20646;-79
2021/04/08 09:50:58;;;;;;;4.18;1.40;;;15.20;47.80;;;;;;5014000;28;20576;-78
2021/04/08 09:53:37;;;;;;;3.00;1.25;;;15.10;47.90;;;;;;5011428;28;20182;-78
2021/04/08 09:56:05;;;;;;;1.50;1.03;;;15.10;49.20;;;;;;5012819;28;20165;-79
2021/04/08 09:58:33;;;;;;;3.00;1.30;;;15.20;49.80;;;;;;5027321;28;20651;-78
2021/04/08 10:01:05;;;;;;;4.33;1.00;;;15.20;48.80;;;;;;5032590;28;20596;-78
2021/04/08 10:03:43;;;;;;;2.55;1.02;;;15.20;49.80;;;;;;5015369;28;21013;-79
2021/04/08 10:06:22;;;;;;;4.90;1.47;;;15.10;48.70;;;;;;5032370;28;20173;-78
2021/04/08 10:08:49;;;;;;;4.80;1.90;;;15.00;48.40;;;;;;5032502;28;20607;-77
2021/04/08 10:11:24;;;;;;;2.05;1.20;;;14.80;49.00;;;;;;5032524;28;20201;-78
2021/04/08 10:13:50;;;;;;;2.83;1.30;;;14.80;49.20;;;;;;5032529;28;20641;-78
2021/04/08 10:16:16;;;;;;;3.30;1.00;;;14.70;48.60;;;;;;5007396;28;20169;-78
2021/04/08 10:18:43;;;;;;;2.90;1.47;;;14.80;49.20;;;;;;5030952;28;20213;-78
2021/04/08 10:21:15;;;;;;;1.97;1.07;;;15.10;50.80;;;;;;5031479;28;20592;-79
2021/04/08 10:23:47;;;;;;;1.63;0.90;;;15.90;51.60;;;;;;5032204;28;20568;-79
2021/04/08 10:26:22;;;;;;;3.53;2.10;;;16.70;53.20;;;;;;5032278;28;20568;-79
2021/04/08 10:28:54;;;;;;;1.97;1.10;;;17.60;53.40;;;;;;5017948;28;20683;-79
2021/04/08 10:31:29;;;;;;;2.20;1.40;;;18.40;53.10;;;;;;5026138;28;20702;-78
2021/04/08 10:34:07;;;;;;;1.90;0.90;;;18.80;52.40;;;;;;5025324;28;20584;-78
2021/04/08 10:36:40;;;;;;;3.77;1.17;;;18.70;50.80;;;;;;5011339;28;20585;-78
2021/04/08 10:39:19;;;;;;;4.80;1.67;;;18.50;49.10;;;;;;5021037;28;20988;-79
2021/04/08 10:42:00;;;;;;;2.10;1.43;;;18.30;48.60;;;;;;5033784;28;21154;-78
2021/04/08 10:44:26;;;;;;;3.60;1.63;;;17.90;46.10;;;;;;5017835;28;20579;-78
2021/04/08 10:46:54;;;;;;;3.13;1.37;;;17.40;47.00;;;;;;5035839;28;20564;-78
2021/04/08 10:49:24;;;;;;;2.00;1.13;;;17.00;47.00;;;;;;5015416;28;20200;-79
2021/04/08 10:51:53;;;;;;;3.40;1.60;;;16.60;46.90;;;;;;5015624;28;20616;-78
2021/04/08 10:54:19;;;;;;;4.32;2.20;;;16.20;46.80;;;;;;4981471;28;20569;-79
2021/04/08 10:56:49;;;;;;;4.22;1.80;;;15.80;46.10;;;;;;5014942;28;20171;-79
2021/04/08 10:59:17;;;;;;;3.93;2.10;;;15.50;46.50;;;;;;5015637;28;20202;-81
2021/04/08 11:01:43;;;;;;;4.25;2.15;;;15.10;45.60;;;;;;5015344;28;20683;-81
2021/04/08 11:04:09;;;;;;;3.73;1.53;;;14.80;46.50;;;;;;5021415;28;20194;-79
2021/04/08 11:06:35;;;;;;;3.40;1.57;;;14.80;47.70;;;;;;5036143;28;20879;-78
2021/04/08 11:09:05;;;;;;;2.07;1.40;;;14.80;48.20;;;;;;5048606;28;20584;-82
2021/04/08 11:11:31;;;;;;;4.87;1.83;;;14.90;48.80;;;;;;5036442;28;20612;-84
2021/04/08 11:13:57;;;;;;;2.80;1.33;;;15.00;48.70;;;;;;5018800;28;20587;-81
2021/04/08 11:16:27;;;;;;;2.53;1.63;;;15.10;49.10;;;;;;5035268;28;20580;-82
2021/04/08 11:18:59;;;;;;;2.83;1.63;;;15.20;48.90;;;;;;5035356;28;20205;-82
2021/04/08 11:21:27;;;;;;;5.80;3.08;;;15.40;49.40;;;;;;5033734;28;20615;-81
2021/04/08 11:23:54;;;;;;;2.23;1.87;;;15.50;49.50;;;;;;5034980;28;20162;-83
2021/04/08 11:26:20;;;;;;;5.50;2.03;;;15.60;49.00;;;;;;5034948;28;20584;-81
2021/04/08 11:28:57;;;;;;;3.60;2.03;;;15.60;48.30;;;;;;5034675;28;20630;-83
2021/04/08 11:31:23;;;;;;;6.93;2.30;;;15.50;48.00;;;;;;5034345;28;20637;-82
2021/04/08 11:34:01;;;;;;;5.97;2.60;;;15.50;48.00;;;;;;5032291;28;20583;-81
2021/04/08 11:36:27;;;;;;;2.63;1.90;;;15.40;47.40;;;;;;5028141;28;20583;-80
2021/04/08 11:38:53;;;;;;;5.97;2.67;;;15.40;47.80;;;;;;5011898;28;20643;-80
2021/04/08 11:41:19;;;;;;;4.88;1.80;;;15.40;48.50;;;;;;5041344;28;21144;-80
2021/04/08 11:43:50;;;;;;;3.30;2.33;;;15.50;49.10;;;;;;5030699;28;20173;-82
2021/04/08 11:46:23;;;;;;;2.47;1.90;;;15.50;48.90;;;;;;5026005;28;20676;-82
2021/04/08 11:48:49;;;;;;;3.40;2.53;;;15.60;48.90;;;;;;5033605;28;20610;-80
2021/04/08 11:51:18;;;;;;;3.93;2.70;;;15.70;49.30;;;;;;4991987;28;20731;-81
2021/04/08 11:53:44;;;;;;;4.57;2.47;;;15.90;49.80;;;;;;5034552;28;20595;-82
2021/04/08 11:56:33;;;;;;;2.40;1.80;;;16.00;49.60;;;;;;5034847;28;20579;-80
2021/04/08 11:59:21;;;;;;;6.50;2.60;;;16.10;49.00;;;;;;5035296;28;20612;-80
2021/04/08 12:01:50;;;;;;;6.47;3.00;;;16.20;49.20;;;;;;5034810;28;20596;-80
2021/04/08 12:04:20;;;;;;;4.87;2.87;;;16.30;49.80;;;;;;5034515;28;20691;-80
2021/04/08 12:06:47;;;;;;;5.33;2.43;;;16.30;49.00;;;;;;5017321;28;20634;-81
2021/04/08 12:09:13;;;;;;;4.70;2.33;;;16.40;49.20;;;;;;5033385;28;20992;-80
2021/04/08 12:11:46;;;;;;;5.63;2.27;;;16.60;49.20;;;;;;5034546;28;21009;-80
2021/04/08 12:14:12;;;;;;;3.33;2.30;;;16.60;48.00;;;;;;5034542;28;20576;-80
2021/04/08 12:16:37;;;;;;;4.03;2.63;;;16.60;48.80;;;;;;5032739;28;20676;-80
2021/04/08 12:19:03;;;;;;;5.07;2.57;;;16.70;49.10;;;;;;5032244;28;20190;-81
2021/04/08 12:21:29;;;;;;;5.57;2.30;;;16.70;48.30;;;;;;5014605;28;20186;-80
2021/04/08 12:23:56;;;;;;;6.30;3.10;;;16.50;46.50;;;;;;5025946;28;20241;-80
2021/04/08 12:26:38;;;;;;;4.43;3.13;;;16.40;47.30;;;;;;5032292;28;20619;-80
2021/04/08 12:29:05;;;;;;;3.70;2.33;;;16.30;46.80;;;;;;5011119;28;20577;-80
2021/04/08 12:31:31;;;;;;;2.30;1.80;;;16.20;47.00;;;;;;5026910;28;20662;-81
2021/04/08 12:33:57;;;;;;;3.17;2.27;;;16.20;47.20;;;;;;5024649;28;20676;-78
2021/04/08 12:36:23;;;;;;;3.47;1.57;;;16.10;47.40;;;;;;5034310;28;20609;-81
2021/04/08 12:38:48;;;;;;;2.53;1.60;;;16.00;47.30;;;;;;5026018;28;20198;-80
2021/04/08 12:41:14;;;;;;;9.20;2.30;;;16.00;47.90;;;;;;5041954;28;20208;-80
2021/04/08 12:43:41;;;;;;;6.60;3.03;;;16.00;47.50;;;;;;5047305;28;20176;-80
2021/04/08 12:46:07;;;;;;;4.60;2.80;;;16.00;47.90;;;;;;5038706;28;21170;-82
2021/04/08 12:48:33;;;;;;;4.23;2.27;;;16.00;47.40;;;;;;5037445;28;20686;-79
2021/04/08 12:50:59;;;;;;;3.40;2.90;;;15.90;47.00;;;;;;5061718;28;20213;-80
2021/04/08 12:53:26;;;;;;;4.30;2.37;;;15.70;46.80;;;;;;5031864;28;20604;-77
2021/04/08 12:55:55;;;;;;;4.60;2.93;;;15.50;46.10;;;;;;5040929;28;20688;-79
2021/04/08 12:58:23;;;;;;;4.37;2.40;;;15.40;46.80;;;;;;5028817;28;21022;-79
2021/04/08 13:00:49;;;;;;;3.37;2.57;;;15.40;47.00;;;;;;5031929;28;20588;-79
2021/04/08 13:03:15;;;;;;;4.80;2.50;;;15.30;47.30;;;;;;5016219;28;20585;-80